createdAt,value
2019-03-19T00:04:20.077Z,56.75
2019-03-19T00:09:27.537Z,57.30
2019-03-19T00:14:37.062Z,57.25
2019-03-19T00:19:44.444Z,57.34
2019-03-19T00:24:54.024Z,57.55
2019-03-19T00:30:07.271Z,57.93
2019-03-19T00:35:18.841Z,57.47
2019-03-19T00:40:26.505Z,58.07
2019-03-19T00:45:34.085Z,57.80
2019-03-19T00:50:42.977Z,57.80
2019-03-19T00:55:52.217Z,58.07
2019-03-19T01:01:00.935Z,57.78
2019-03-19T01:06:10.369Z,57.86
2019-03-19T01:11:19.791Z,57.40
2019-03-19T01:16:27.268Z,58.04
2019-03-19T01:21:38.575Z,58.01
2019-03-19T01:26:51.420Z,58.05
2019-03-19T01:31:59.025Z,58.05
2019-03-19T01:37:07.748Z,58.54
2019-03-19T01:42:16.236Z,58.63
2019-03-19T01:47:26.430Z,58.27
2019-03-19T01:52:35.578Z,58.66
2019-03-19T01:57:42.808Z,58.44
2019-03-19T02:02:51.331Z,58.60
2019-03-19T02:08:04.894Z,59.73
2019-03-19T02:13:14.241Z,59.10
2019-03-19T02:18:22.921Z,58.73
2019-03-19T02:23:35.282Z,58.32
2019-03-19T02:28:44.877Z,57.99
2019-03-19T02:33:51.523Z,58.21
2019-03-19T02:39:05.168Z,58.21
2019-03-19T02:44:11.539Z,58.25
2019-03-19T02:49:20.576Z,58.25
2019-03-19T02:54:27.670Z,58.65
2019-03-19T02:59:35.131Z,58.90
2019-03-19T03:04:41.723Z,59.75
2019-03-19T03:09:47.847Z,58.58
2019-03-19T03:14:54.657Z,59.63
2019-03-19T03:20:01.219Z,59.37
2019-03-19T03:25:16.867Z,59.69
2019-03-19T03:30:24.280Z,59.48
2019-03-19T03:35:30.956Z,59.44
2019-03-19T03:40:39.015Z,60.40
2019-03-19T03:45:45.791Z,60.40
2019-03-19T03:50:54.195Z,59.74
2019-03-19T03:56:01.035Z,59.70
2019-03-19T04:01:08.501Z,60.28
2019-03-19T04:06:15.045Z,59.42
2019-03-19T04:11:23.871Z,59.25
2019-03-19T04:16:30.670Z,60.00
2019-03-19T04:21:38.836Z,59.36
2019-03-19T04:26:47.712Z,59.36
2019-03-19T04:31:54.014Z,59.39
2019-03-19T04:37:00.933Z,59.39
2019-03-19T04:42:10.262Z,59.37
2019-03-19T04:47:19.458Z,59.75
2019-03-19T04:52:26.388Z,59.55
2019-03-19T04:57:32.588Z,59.94
2019-03-19T05:02:38.913Z,59.72
2019-03-19T05:07:47.090Z,60.49
2019-03-19T05:13:00.645Z,59.61
2019-03-19T05:18:13.996Z,60.44
2019-03-19T05:23:21.186Z,60.68
2019-03-19T05:28:30.768Z,60.34
2019-03-19T05:33:37.856Z,60.51
2019-03-19T05:38:46.632Z,61.46
2019-03-19T05:43:55.953Z,60.85
2019-03-19T05:49:02.406Z,59.95
2019-03-19T05:54:09.681Z,60.31
2019-03-19T05:59:16.592Z,59.98
2019-03-19T06:04:23.337Z,60.61
2019-03-19T06:09:32.953Z,59.42
2019-03-19T06:14:39.298Z,59.03
2019-03-19T06:19:46.308Z,58.33
2019-03-19T06:24:52.721Z,58.66
2019-03-19T06:29:58.985Z,59.52
2019-03-19T06:35:08.781Z,59.30
2019-03-19T06:40:22.708Z,59.35
2019-03-19T06:45:34.151Z,59.42
2019-03-19T06:50:45.487Z,59.01
2019-03-19T06:55:52.899Z,58.47
2019-03-19T07:01:06.150Z,58.31
2019-03-19T07:06:19.230Z,57.76
2019-03-19T07:11:27.860Z,57.66
2019-03-19T07:16:34.658Z,56.56
2019-03-19T07:21:43.934Z,55.90
2019-03-19T07:26:50.008Z,55.81
2019-03-19T07:31:57.558Z,56.15
2019-03-19T07:37:04.481Z,56.00
2019-03-19T07:42:15.562Z,56.50
2019-03-19T07:47:26.344Z,55.54
2019-03-19T07:52:32.434Z,54.40
2019-03-19T07:57:38.919Z,53.60
2019-03-19T08:02:45.297Z,54.26
2019-03-19T08:07:51.233Z,53.67
2019-03-19T08:13:01.032Z,54.52
2019-03-19T08:18:17.055Z,54.31
2019-03-19T08:28:39.422Z,55.70
2019-03-19T08:33:50.755Z,56.35
2019-03-19T08:38:59.351Z,60.58
2019-03-19T08:44:13.583Z,63.92
2019-03-19T08:54:39.619Z,65.11
2019-03-19T08:59:48.426Z,63.11
2019-03-19T09:04:55.553Z,61.48
2019-03-19T09:10:05.010Z,60.51
2019-03-19T09:15:14.487Z,62.04
2019-03-19T09:20:23.416Z,58.25
2019-03-19T09:25:33.075Z,56.65
2019-03-19T09:30:41.895Z,55.72
2019-03-19T09:35:48.921Z,55.54
2019-03-19T09:40:57.704Z,53.88
2019-03-19T09:46:05.462Z,52.03
2019-03-19T09:51:11.846Z,51.24
2019-03-19T09:56:17.867Z,53.19
2019-03-19T10:01:25.211Z,54.08
2019-03-19T10:06:32.606Z,51.54
2019-03-19T10:11:39.640Z,51.54
2019-03-19T10:16:49.558Z,51.81
2019-03-19T10:21:56.659Z,50.41
2019-03-19T10:27:04.539Z,49.02
2019-03-19T10:32:13.416Z,45.14
2019-03-19T10:37:20.819Z,45.89
2019-03-19T10:42:29.565Z,48.58
2019-03-19T10:47:41.557Z,50.53
2019-03-19T10:52:49.289Z,48.78
2019-03-19T10:58:10.651Z,45.35
2019-03-19T11:03:13.433Z,43.21
2019-03-19T11:08:26.743Z,41.32
2019-03-19T11:13:33.529Z,39.34
2019-03-19T11:18:43.264Z,40.34
2019-03-19T11:23:51.630Z,44.39
2019-03-19T11:29:01.427Z,42.58
2019-03-19T11:34:08.595Z,40.63
2019-03-19T11:39:16.015Z,42.30
2019-03-19T11:44:23.429Z,41.87
2019-03-19T11:49:35.957Z,38.87
2019-03-19T11:54:42.993Z,41.84
2019-03-19T11:59:51.468Z,41.65
2019-03-19T12:05:31.232Z,40.99
2019-03-19T12:10:09.537Z,42.14
2019-03-19T12:15:20.475Z,47.81
2019-03-19T12:20:28.670Z,49.68
2019-03-19T12:25:35.857Z,50.93
2019-03-19T12:30:44.512Z,48.51
2019-03-19T12:35:53.849Z,46.16
2019-03-19T12:41:03.799Z,44.61
2019-03-19T12:46:10.159Z,44.30
2019-03-19T12:51:16.516Z,44.67
2019-03-19T12:56:26.478Z,46.01
2019-03-19T13:01:33.889Z,45.95
2019-03-19T13:06:42.355Z,43.51
2019-03-19T13:11:50.180Z,43.16
2019-03-19T13:16:57.280Z,40.87
2019-03-19T13:22:04.919Z,40.74
2019-03-19T13:27:14.575Z,40.54
2019-03-19T13:32:21.967Z,42.17
2019-03-19T13:37:30.109Z,42.90
2019-03-19T13:42:39.217Z,45.77
2019-03-19T13:47:46.726Z,43.89
2019-03-19T13:52:53.815Z,45.63
2019-03-19T13:58:00.761Z,45.11
2019-03-19T14:03:11.411Z,45.85
2019-03-19T14:08:18.177Z,46.75
2019-03-19T14:13:26.083Z,45.88
2019-03-19T14:18:35.349Z,44.33
2019-03-19T14:23:41.992Z,43.83
2019-03-19T14:28:53.719Z,45.02
2019-03-19T14:34:02.599Z,46.70
2019-03-19T14:39:11.228Z,47.70
2019-03-19T14:44:17.965Z,47.77
2019-03-19T14:49:26.588Z,48.56
2019-03-19T14:54:34.003Z,48.26
2019-03-19T14:59:54.341Z,46.92
2019-03-19T15:05:07.127Z,47.80
2019-03-19T15:10:16.520Z,46.83
2019-03-19T15:15:25.231Z,47.68
2019-03-19T15:20:31.757Z,47.42
2019-03-19T15:25:38.495Z,47.38
2019-03-19T15:30:46.039Z,47.12
2019-03-19T15:35:54.059Z,48.38
2019-03-19T15:41:08.075Z,47.31
2019-03-19T15:46:15.482Z,46.25
2019-03-19T15:51:23.260Z,46.99
2019-03-19T16:02:30.450Z,47.61
2019-03-19T16:07:36.708Z,47.48
2019-03-19T16:12:43.980Z,47.29
2019-03-19T16:17:51.335Z,47.69
2019-03-19T16:22:58.789Z,49.11
2019-03-19T16:28:06.116Z,49.05
2019-03-19T16:33:13.825Z,49.23
2019-03-19T16:38:20.216Z,50.23
2019-03-19T16:43:27.738Z,50.15
2019-03-19T16:48:38.597Z,50.05
2019-03-19T16:53:47.341Z,49.22
2019-03-19T16:58:55.306Z,48.83
2019-03-19T17:04:04.937Z,48.98
2019-03-19T17:09:13.606Z,49.58
2019-03-19T17:14:35.176Z,50.32
2019-03-19T17:19:42.322Z,50.36
2019-03-19T17:24:51.499Z,50.67
2019-03-19T17:30:00.434Z,50.49
2019-03-19T17:35:09.200Z,51.16
2019-03-19T17:40:17.455Z,51.40
2019-03-19T17:45:24.402Z,51.70
2019-03-19T17:50:38.810Z,51.27
2019-03-19T17:55:49.496Z,51.59
2019-03-19T18:01:05.450Z,52.14
2019-03-19T18:06:16.332Z,52.00
2019-03-19T18:11:24.062Z,51.63
2019-03-19T18:16:31.802Z,52.15
2019-03-19T18:21:40.870Z,52.59
2019-03-19T18:26:47.208Z,52.71
2019-03-19T18:31:53.570Z,52.61
2019-03-19T18:37:06.480Z,52.36
2019-03-19T18:42:18.446Z,53.15
2019-03-19T18:47:27.381Z,51.96
2019-03-19T18:52:38.049Z,52.36
2019-03-19T18:57:44.587Z,53.34
2019-03-19T19:02:53.070Z,52.94
2019-03-19T19:08:02.314Z,52.27
2019-03-19T19:13:13.872Z,52.95
2019-03-19T19:18:20.768Z,52.79
2019-03-19T19:23:27.256Z,53.70
2019-03-19T19:28:50.745Z,54.09
2019-03-19T19:34:03.164Z,53.58
2019-03-19T19:39:11.893Z,53.91
2019-03-19T19:44:20.303Z,53.91
2019-03-19T19:49:31.400Z,54.00
2019-03-19T19:54:40.272Z,53.61
2019-03-19T19:59:50.168Z,53.48
2019-03-19T20:05:02.781Z,52.49
2019-03-19T20:10:12.726Z,52.00
2019-03-19T20:15:29.692Z,52.37
2019-03-19T20:20:45.560Z,52.27
2019-03-19T20:25:58.344Z,52.38
2019-03-19T20:31:08.653Z,52.78
2019-03-19T20:36:17.024Z,53.00
2019-03-19T20:41:26.308Z,51.72
2019-03-19T20:46:34.103Z,52.78
2019-03-19T20:51:44.114Z,52.21
2019-03-19T20:56:56.406Z,52.34
2019-03-19T21:02:06.021Z,63.82
2019-03-19T21:07:16.822Z,52.60
2019-03-19T21:12:41.957Z,52.56
2019-03-19T21:17:51.719Z,53.13
2019-03-19T21:22:59.455Z,53.13
2019-03-19T21:28:14.021Z,54.11
2019-03-19T21:33:23.493Z,54.11
2019-03-19T21:38:32.466Z,53.27
2019-03-19T21:43:38.876Z,53.89
2019-03-19T21:48:48.061Z,53.58
2019-03-19T21:53:53.861Z,53.23
2019-03-19T21:59:01.211Z,52.89
2019-03-19T22:04:08.521Z,52.83
2019-03-19T22:09:16.019Z,53.25
2019-03-19T22:14:23.691Z,52.33
2019-03-19T22:19:34.420Z,52.97
2019-03-19T22:24:44.859Z,53.59
2019-03-19T22:29:53.597Z,52.95
2019-03-19T22:35:00.485Z,53.20
2019-03-19T22:40:08.930Z,53.55
2019-03-19T22:45:25.608Z,52.88
2019-03-19T22:50:35.638Z,54.51
2019-03-19T22:55:43.133Z,54.17
2019-03-19T23:00:57.687Z,54.88
2019-03-19T23:06:11.043Z,55.41
2019-03-19T23:11:17.097Z,55.43
2019-03-19T23:16:27.281Z,55.26
2019-03-19T23:21:34.702Z,54.61
2019-03-19T23:26:43.597Z,54.94
2019-03-19T23:31:53.514Z,53.96
2019-03-19T23:37:02.529Z,53.77
2019-03-19T23:42:08.506Z,53.97
2019-03-19T23:53:41.312Z,53.81
2019-03-19T23:58:47.620Z,53.15
